Buoy 47557

sailwx.info

Track history (hours):
 
Tides and Currents Weather Stations Pressure Air Temp Water Temp Dewpoint Dewpoint Depression Visibility Wind Speed Wind Dir Waves Ship Positions

Drifting buoy 47557

Last reported at 2016-Dec-03 18:00 UTC. Time now 2016-Dec-03 19:45 UTC.
Position N 51°30' W 018°27'.

Barometer 1011.7 mb
Water temperature 13.4 ° C

Date/timePositionNaut miles runAvg speedWind from/ knotsBaromVisibWave heightAir tempDewpointWater temp
2016-Dec-03 18:00N 51°30' W 018°27'0 0.4 1011.7 13.4
2016-Dec-03 17:00N 51°30' W 018°26'1 0.7 1011.4 13.4
2016-Dec-03 16:00N 51°29' W 018°26'0 0.0 1011.2 13.4
2016-Dec-03 15:00N 51°29' W 018°26'0 0.4 1011.6 13.4
2016-Dec-03 14:00N 51°29' W 018°25'0 0.0 1012.1 13.4
2016-Dec-03 13:00N 51°29' W 018°25'0 0.0 1012.5 13.3
2016-Dec-03 12:00N 51°29' W 018°25'1 0.7 1013.0 13.3
2016-Dec-03 11:00N 51°29' W 018°26'0 0.0 1013.1 13.3
2016-Dec-03 10:00N 51°29' W 018°26'1 0.6 1013.1 13.3
2016-Dec-03 09:00N 51°28' W 018°26'1 0.6 1013.0 13.3
2016-Dec-03 08:00N 51°28' W 018°26'0 0.0 1012.9 13.3
2016-Dec-03 07:00N 51°28' W 018°26'1 0.6 1013.0 13.3
2016-Dec-03 06:00N 51°27' W 018°26'1 0.7 1012.9 13.3
2016-Dec-03 05:00N 51°26' W 018°25'1 0.6 1013.2 13.3
2016-Dec-03 04:00N 51°26' W 018°25'1 0.7 1013.7 13.3
2016-Dec-03 03:00N 51°25' W 018°25'0 0.0 1013.9 13.3
2016-Dec-03 02:00N 51°25' W 018°25'0 0.4 1014.2 13.2
2016-Dec-03 01:00N 51°25' W 018°24'0 0.0 1014.8 13.2
2016-Dec-03 00:00N 51°25' W 018°24'1 0.6 1014.9 13.2
2016-Dec-02 23:00N 51°25' W 018°24'0 0.0 1015.0 13.2
2016-Dec-02 22:00N 51°25' W 018°24'1 0.6 1015.3 13.2
2016-Dec-02 21:00N 51°24' W 018°24'0 0.0 1015.4 13.2
2016-Dec-02 20:00N 51°24' W 018°24'1 0.6 1015.4 13.2
2016-Dec-02 19:00N 51°23' W 018°24'1 0.6 1015.6 13.2
2016-Dec-02 18:00N 51°23' W 018°24'1 0.7 1015.5 13.2
2016-Dec-02 17:00N 51°22' W 018°23'1 0.6 1015.2 13.2
2016-Dec-02 16:00N 51°22' W 018°23'0 0.0 1015.2 13.2
2016-Dec-02 15:00N 51°22' W 018°23'1 0.7 1015.5 13.2
2016-Dec-02 14:00N 51°21' W 018°23'0 0.0 1016.0 13.2
2016-Dec-02 13:00N 51°21' W 018°23'1 0.7 1016.5 13.2
2016-Dec-02 12:00N 51°20' W 018°22'0 0.0 1017.1 13.2
2016-Dec-02 11:00N 51°20' W 018°22'0 0.0 1017.4 13.2
2016-Dec-02 10:00N 51°20' W 018°22'1 0.7 1017.3 13.1
2016-Dec-02 09:00N 51°20' W 018°22'1 0.6 1017.2 13.1
2016-Dec-02 08:00N 51°19' W 018°22'1 0.6 1017.1 13.1
2016-Dec-02 07:00N 51°19' W 018°22'0 0.4 1016.9 13.1
2016-Dec-02 06:00N 51°19' W 018°21'1 0.6 1017.1 13.1
2016-Dec-02 05:00N 51°18' W 018°21'1 0.6 1017.5 13.1
2016-Dec-02 04:00N 51°17' W 018°21'1 0.6 1017.7 13.1
2016-Dec-02 03:00N 51°17' W 018°21'1 0.6 1018.1 13.1
2016-Dec-02 02:00N 51°16' W 018°21'0 0.0 1018.5 13.1
2016-Dec-02 01:00N 51°16' W 018°21'1 0.7 1019.1 13.1
2016-Dec-02 00:00N 51°16' W 018°20'1 0.6 1019.5 13.1
2016-Dec-01 23:00N 51°15' W 018°20'1 0.6 1019.6 13.1
2016-Dec-01 22:00N 51°14' W 018°20'0 0.0 1020.0 13.2
2016-Dec-01 21:00N 51°14' W 018°20'1 0.7 1020.3 13.2
2016-Dec-01 20:00N 51°14' W 018°20'1 0.6 1020.5 13.2
2016-Dec-01 19:00N 51°13' W 018°20'1 0.7 1020.8 13.2
2016-Dec-01 18:00N 51°13' W 018°19'1 0.6 1021.2 13.2
2016-Dec-01 17:00N 51°12' W 018°19'1 0.7 1021.2 13.3
2016-Dec-01 16:00N 51°11' W 018°19'0 0.0 1021.4 13.3
2016-Dec-01 15:00N 51°11' W 018°19'1 0.6 1022.1 13.3
2016-Dec-01 14:00N 51°11' W 018°19'0 0.0 1022.6 13.3
2016-Dec-01 13:00N 51°11' W 018°19'0 0.4 1023.5 13.3
2016-Dec-01 12:00N 51°11' W 018°19'0 0.0 1024.0 13.3
2016-Dec-01 11:00N 51°11' W 018°19'1 0.6 1024.1 13.3
2016-Dec-01 10:00N 51°10' W 018°19'1 0.4 1023.9 13.3
2016-Dec-01 08:00N 51°10' W 018°20'1 0.6 1024.2 13.3
2016-Dec-01 07:00N 51°09' W 018°20'0 0.4 1024.2 13.3
2016-Dec-01 06:00N 51°09' W 018°19'1 0.6 1024.7 13.4
2016-Dec-01 05:00N 51°08' W 018°19'1 0.6 1025.0 13.4
2016-Dec-01 04:00N 51°08' W 018°19'1 0.6 1025.2 13.4
2016-Dec-01 03:00N 51°07' W 018°19'1 0.4 1025.5 13.4
2016-Dec-01 01:00N 51°07' W 018°19'0 0.0 1026.8 13.4
2016-Dec-01 00:00N 51°07' W 018°19'1 0.6 1027.4 13.4
2016-Nov-30 23:00N 51°06' W 018°19'0 0.0 1027.7 13.4
2016-Nov-30 22:00N 51°06' W 018°19'0 0.4 1028.3 13.4
2016-Nov-30 21:00N 51°06' W 018°18'1 0.7 1028.7 13.4
2016-Nov-30 20:00N 51°05' W 018°17'0 0.0 1029.2 13.4
2016-Nov-30 19:00N 51°05' W 018°17'1 0.6 1029.1 13.4
2016-Nov-30 18:00N 51°05' W 018°17'0 0.0 1029.2 13.4
2016-Nov-30 17:00N 51°05' W 018°17'1 0.7 1029.4 13.4
2016-Nov-30 16:00N 51°04' W 018°17'1 0.6 1029.6 13.4
2016-Nov-30 15:00N 51°04' W 018°17'0 0.0 1029.8 13.5
2016-Nov-30 14:00N 51°04' W 018°17'1 0.7 1030.8 13.5
2016-Nov-30 13:00N 51°03' W 018°16'1 0.6 1031.6 13.5
2016-Nov-30 12:00N 51°02' W 018°16'0 0.4 1032.5 13.5
2016-Nov-30 11:00N 51°02' W 018°16'1 0.7 1032.9 13.5
2016-Nov-30 10:00N 51°02' W 018°15'0 0.0 1032.8 13.5
2016-Nov-30 09:00N 51°02' W 018°15'1 0.7 1033.0 13.5
2016-Nov-30 08:00N 51°01' W 018°14'0 0.0 1032.7 13.5
2016-Nov-30 07:00N 51°01' W 018°14'1 0.7 1032.7 13.5
2016-Nov-30 06:00N 51°01' W 018°14'0 0.0 1032.7 13.5
2016-Nov-30 05:00N 51°01' W 018°14'1 0.6 1032.6 13.5
2016-Nov-30 04:00N 51°00' W 018°14'1 0.6 1032.7 13.5
2016-Nov-30 03:00N 50°59' W 018°14'1 0.6 1032.5 13.5
2016-Nov-30 02:00N 50°59' W 018°14'1 0.7 1033.3 13.5
2016-Nov-30 01:00N 50°58' W 018°13'0 0.0 1033.8 13.6
2016-Nov-30 00:00N 50°58' W 018°13'1 0.6 1034.0 13.6
2016-Nov-29 23:00N 50°58' W 018°13'1 0.6 1034.0 13.6
2016-Nov-29 22:00N 50°57' W 018°13'0 0.4 1034.2 13.6
2016-Nov-29 21:00N 50°57' W 018°13'1 0.6 1034.1 13.6
2016-Nov-29 20:00N 50°56' W 018°13'0 0.4 1033.9 13.6
2016-Nov-29 19:00N 50°56' W 018°12'1 0.6 1033.7 13.6
2016-Nov-29 18:00N 50°56' W 018°12'0 0.4 1033.4 13.6
2016-Nov-29 17:00N 50°56' W 018°11'1 0.6 1033.2 13.6
2016-Nov-29 16:00N 50°55' W 018°11'1 0.6 1033.0 13.6
2016-Nov-29 15:00N 50°55' W 018°11'0 0.4 1032.7 13.6
2016-Nov-29 14:00N 50°55' W 018°11'1 0.6 1032.4 13.6
2016-Nov-29 13:00N 50°54' W 018°11'0 0.4 1033.0 13.6
2016-Nov-29 12:00N 50°54' W 018°10'1 0.6 1033.0 13.6
2016-Nov-29 11:00N 50°53' W 018°10'0 0.4 1032.8 13.6
2016-Nov-29 10:00N 50°53' W 018°10'1 0.6 1032.4 13.6
2016-Nov-29 09:00N 50°53' W 018°10'0 0.0 1031.7 13.6
2016-Nov-29 08:00N 50°53' W 018°10'1 0.7 1030.7 13.6
2016-Nov-29 07:00N 50°52' W 018°09'0 0.0 1030.2 13.6
2016-Nov-29 06:00N 50°52' W 018°09'1 0.7 1029.5 13.6
2016-Nov-29 05:00N 50°52' W 018°08'1 0.6 1028.8 13.6
2016-Nov-29 04:00N 50°51' W 018°08'1 0.6 1028.4 13.6
2016-Nov-29 03:00N 50°50' W 018°08'1 0.6 1027.9 13.6
2016-Nov-29 02:00N 50°50' W 018°08'1 0.6 1027.3 13.7
2016-Nov-29 01:00N 50°49' W 018°08'0 0.0 1027.0 13.7
2016-Nov-29 00:00N 50°49' W 018°08'1 0.6 1026.6 13.7
2016-Nov-28 23:00N 50°49' W 018°08'0 0.0 1026.2 13.7
2016-Nov-28 22:00N 50°49' W 018°08'1 0.6 1025.7 13.7
2016-Nov-28 21:00N 50°48' W 018°08'1 0.7 1025.0 13.7
2016-Nov-28 20:00N 50°47' W 018°08'0 0.0 1024.2 13.7
2016-Nov-28 19:00N 50°47' W 018°08'1 0.7 1023.5 13.7
2016-Nov-28 18:00N 50°47' W 018°07'0 0.0 1022.9 13.7
2016-Nov-28 17:00N 50°47' W 018°07'1 0.6 1021.9 13.7
2016-Nov-28 16:00N 50°46' W 018°07'1 0.6 1020.8 13.7
2016-Nov-28 15:00N 50°46' W 018°07'0 0.0 1020.4 13.7
2016-Nov-28 14:00N 50°46' W 018°07'1 0.6 1020.7 13.7
2016-Nov-28 13:00N 50°45' W 018°07'1 0.6 1020.9 13.7
2016-Nov-28 12:00N 50°44' W 018°07'1 0.6 1020.8 13.7
2016-Nov-28 11:00N 50°44' W 018°07'1 0.7 1020.2 13.7
2016-Nov-28 10:00N 50°43' W 018°07'1 0.7 1020.1 13.7
2016-Nov-28 09:00N 50°43' W 018°06'1 0.6 1019.7 13.7
2016-Nov-28 08:00N 50°42' W 018°06'0 0.4 1019.2 13.7
2016-Nov-28 07:00N 50°42' W 018°05'1 0.7 1018.6 13.7
2016-Nov-28 06:00N 50°41' W 018°05'1 0.6 1018.4 13.7
2016-Nov-28 05:00N 50°41' W 018°05'1 0.6 1018.4 13.7
2016-Nov-28 04:00N 50°40' W 018°05'0 0.0 1018.5 13.7
2016-Nov-28 03:00N 50°40' W 018°05'1 0.6 1018.6 13.7
2016-Nov-28 02:00N 50°40' W 018°05'1 0.6 1018.8 13.6
2016-Nov-28 01:00N 50°39' W 018°05'1 0.6 1019.2 13.6
2016-Nov-28 00:00N 50°38' W 018°05'1 0.6 1019.4 13.7
2016-Nov-27 23:00N 50°38' W 018°05'1 0.6 1019.7 13.7
2016-Nov-27 21:00N 50°37' W 018°05'1 0.6 1019.8 13.7
2016-Nov-27 20:00N 50°36' W 018°05'1 0.7 1019.8 13.7
2016-Nov-27 19:00N 50°35' W 018°04'1 0.6 1019.7 13.7
2016-Nov-27 18:00N 50°35' W 018°04'0 0.4 1019.8 13.7
2016-Nov-27 17:00N 50°35' W 018°04'1 0.6 1019.6 13.7
2016-Nov-27 16:00N 50°34' W 018°04'1 0.7 1019.7 13.7
2016-Nov-27 15:00N 50°34' W 018°03'1 0.6 1019.8 13.7
2016-Nov-27 14:00N 50°33' W 018°03'1 0.6 1020.3 13.7
2016-Nov-27 13:00N 50°32' W 018°03'0 0.4 1020.6 13.7
2016-Nov-27 12:00N 50°32' W 018°04'1 0.6 1021.1 13.7
2016-Nov-27 11:00N 50°32' W 018°04'1 0.6 1021.4 13.7
2016-Nov-27 10:00N 50°31' W 018°04'1 0.6 1021.4 13.7
2016-Nov-27 09:00N 50°31' W 018°04'1 0.6 1021.1 13.6
2016-Nov-27 08:00N 50°30' W 018°04'0 0.4 1020.8 13.6
2016-Nov-27 07:00N 50°30' W 018°03'1 0.6 1020.9 13.6
2016-Nov-27 06:00N 50°29' W 018°03'1 0.6 1020.8 13.6
2016-Nov-27 05:00N 50°29' W 018°03'1 0.6 1020.8 13.6
2016-Nov-27 04:00N 50°28' W 018°03'1 0.6 1020.7 13.6
2016-Nov-27 03:00N 50°28' W 018°03'1 0.6 1020.8 13.6
2016-Nov-27 02:00N 50°27' W 018°03'1 0.7 1020.9 13.7
2016-Nov-27 01:00N 50°26' W 018°02'1 0.6 1021.2 13.7
2016-Nov-27 00:00N 50°26' W 018°02'1 0.6 1021.2 13.7
2016-Nov-26 23:00N 50°25' W 018°02'0 0.0 1021.1 13.7
2016-Nov-26 22:00N 50°25' W 018°02'0 0.0 1021.1 13.7
2016-Nov-26 21:00N 50°25' W 018°02'1 0.6 1021.0 13.7
2016-Nov-26 20:00N 50°25' W 018°02'0 0.0 1020.7 13.7
2016-Nov-26 19:00N 50°25' W 018°02'1 0.7 1020.7 13.8
2016-Nov-26 18:00N 50°24' W 018°03'0 0.0 1020.4 13.8
2016-Nov-26 17:00N 50°24' W 018°03'1 0.7 1020.1 13.8
2016-Nov-26 16:00N 50°23' W 018°04'0 0.0 1020.0 13.7
2016-Nov-26 15:00N 50°23' W 018°04'1 0.6 1019.8 13.8
2016-Nov-26 14:00N 50°23' W 018°04'1 0.6 1020.2 13.8
2016-Nov-26 13:00N 50°22' W 018°04'0 0.0 1020.3 13.8
2016-Nov-26 12:00N 50°22' W 018°04'1 0.6 1020.6 13.7
2016-Nov-26 11:00N 50°22' W 018°04'1 0.7 1020.8 13.8
2016-Nov-26 10:00N 50°21' W 018°03'1 0.6 1021.1 13.7
2016-Nov-26 09:00N 50°20' W 018°03'0 0.4 1020.9 13.7
2016-Nov-26 08:00N 50°20' W 018°02'0 0.4 1020.8 13.7
2016-Nov-26 07:00N 50°20' W 018°02'0 0.0 1020.9 13.7
2016-Nov-26 06:00N 50°20' W 018°02'0 0.0 1020.9 13.7
2016-Nov-26 05:00N 50°20' W 018°02'1 0.6 1021.3 13.7
2016-Nov-26 04:00N 50°20' W 018°02'1 0.7 1021.5 13.7
2016-Nov-26 03:00N 50°19' W 018°02'0 0.0 1021.6 13.7
2016-Nov-26 02:00N 50°19' W 018°02'1 0.7 1022.1 13.7
2016-Nov-26 01:00N 50°19' W 018°03'1 0.7 1022.6 13.8
2016-Nov-26 00:00N 50°18' W 018°04'1 0.6 1022.9 13.8
2016-Nov-25 23:00N 50°17' W 018°04'1 0.6 1023.3 13.8
2016-Nov-25 22:00N 50°17' W 018°04'1 0.6 1023.6 13.8
2016-Nov-25 21:00N 50°16' W 018°04'0 0.0 1024.1 13.8
2016-Nov-25 20:00N 50°16' W 018°04'1 0.6 1024.4 13.8
2016-Nov-25 19:00N 50°16' W 018°04'0 0.0 1024.3 13.8
2016-Nov-25 18:00N 50°16' W 018°04'1 0.7 1024.1 13.8
2016-Nov-25 17:00N 50°15' W 018°03'0 0.0 1024.2 13.8
2016-Nov-25 16:00N 50°15' W 018°03'0 0.4 1024.2 13.8
2016-Nov-25 15:00N 50°15' W 018°04'1 0.7 1024.7 13.8
2016-Nov-25 14:00N 50°14' W 018°04'0 0.4 1025.1 13.8
2016-Nov-25 13:00N 50°14' W 018°05'1 0.7 1025.9 13.8
2016-Nov-25 12:00N 50°14' W 018°05'1 0.8 1026.7 13.8
2016-Nov-25 11:00N 50°14' W 018°07'1 0.7 1026.9 13.8
2016-Nov-25 10:00N 50°13' W 018°07'0 0.4 1026.8 13.8
2016-Nov-25 09:00N 50°13' W 018°08'1 0.7 1026.7 13.8
2016-Nov-25 08:00N 50°13' W 018°08'1 0.7 1026.4 13.8
2016-Nov-25 07:00N 50°12' W 018°09'0 0.0 1026.4 13.8
2016-Nov-25 06:00N 50°12' W 018°09'1 0.7 1026.7 13.8
2016-Nov-25 05:00N 50°11' W 018°08'0 0.4 1026.5 13.8
2016-Nov-25 04:00N 50°11' W 018°08'1 0.6 1026.6 13.7
2016-Nov-25 03:00N 50°11' W 018°08'0 0.4 1026.7 13.7
2016-Nov-25 02:00N 50°11' W 018°07'0 0.0 1027.2 13.7
2016-Nov-25 01:00N 50°11' W 018°07'0 0.0 1027.4 13.7
2016-Nov-25 00:00N 50°11' W 018°07'0 0.0 1027.5 13.6
2016-Nov-24 23:00N 50°11' W 018°07'0 0.4 1027.6 13.6
2016-Nov-24 22:00N 50°11' W 018°08'1 0.7 1027.9 13.6
2016-Nov-24 21:00N 50°10' W 018°08'0 0.4 1028.1 13.6
2016-Nov-24 20:00N 50°10' W 018°09'0 0.4 1028.2 13.6
2016-Nov-24 19:00N 50°10' W 018°10'1 0.6 1027.9 13.6
2016-Nov-24 18:00N 50°10' W 018°10'1 0.7 1027.6 13.6
2016-Nov-24 17:00N 50°09' W 018°10'1 1.3 1027.6 13.6
2016-Nov-24 16:00N 50°08' W 018°10'1 0.6 1027.4 13.7
2016-Nov-24 15:00N 50°07' W 018°10'0 0.0 1027.5 13.6
2016-Nov-24 14:00N 50°07' W 018°10'1 0.7 1027.6 13.7
2016-Nov-24 13:00N 50°07' W 018°09'0 0.0 1027.9 13.8
2016-Nov-24 12:00N 50°07' W 018°09'0 0.4 1028.2 13.8
2016-Nov-24 11:00N 50°07' W 018°08'0 0.4 1027.9 13.8
2016-Nov-24 10:00N 50°07' W 018°09'0 0.0 1027.3 13.7
2016-Nov-24 09:00N 50°07' W 018°09'0 0.4 1026.7 13.7
2016-Nov-24 08:00N 50°07' W 018°10'1 1.0 1026.3 13.7
2016-Nov-24 07:00N 50°06' W 018°11'0 0.4 1026.2 13.7
2016-Nov-24 06:00N 50°06' W 018°11'1 0.7 1025.6 13.7
2016-Nov-24 05:00N 50°05' W 018°12'1 0.7 1025.0 13.7
2016-Nov-24 04:00N 50°05' W 018°13'2 0.9 1024.7 13.7
2016-Nov-24 02:00N 50°03' W 018°12'1 0.6 1024.1 13.7
2016-Nov-24 01:00N 50°02' W 018°12'0 0.0 1024.0 13.8
2016-Nov-24 00:00N 50°02' W 018°12'1 0.6 1023.8 13.8
2016-Nov-23 23:00N 50°02' W 018°12'0 0.0 1023.4 13.8
2016-Nov-23 22:00N 50°02' W 018°12'1 0.7 1023.0 13.8
2016-Nov-23 21:00N 50°01' W 018°13'0 0.0 1022.1 13.8
2016-Nov-23 20:00N 50°01' W 018°13'1 0.7 1021.7 13.8
2016-Nov-23 19:00N 50°01' W 018°13'0 0.4 1021.2 13.8
2016-Nov-23 18:00N 50°01' W 018°14'   1020.4 13.8
Track history (hours):
 
Tides and Currents Weather Stations Pressure Air Temp Water Temp Dewpoint Dewpoint Depression Visibility Wind Speed Wind Dir Waves Ship Positions

Drifting buoy 47557

Last reported at 2016-Dec-03 18:00 UTC. Time now 2016-Dec-03 19:45 UTC.
Position N 51°30' W 018°27'.

Barometer 1011.7 mb
Water temperature 13.4 ° C

Date/timePositionNaut miles runAvg speedWind from/ knotsBaromVisibWave heightAir tempDewpointWater temp
2016-Dec-03 18:00N 51°30' W 018°27'0 0.4 1011.7 13.4
2016-Dec-03 17:00N 51°30' W 018°26'1 0.7 1011.4 13.4
2016-Dec-03 16:00N 51°29' W 018°26'0 0.0 1011.2 13.4
2016-Dec-03 15:00N 51°29' W 018°26'0 0.4 1011.6 13.4
2016-Dec-03 14:00N 51°29' W 018°25'0 0.0 1012.1 13.4
2016-Dec-03 13:00N 51°29' W 018°25'0 0.0 1012.5 13.3
2016-Dec-03 12:00N 51°29' W 018°25'1 0.7 1013.0 13.3
2016-Dec-03 11:00N 51°29' W 018°26'0 0.0 1013.1 13.3
2016-Dec-03 10:00N 51°29' W 018°26'1 0.6 1013.1 13.3
2016-Dec-03 09:00N 51°28' W 018°26'1 0.6 1013.0 13.3
2016-Dec-03 08:00N 51°28' W 018°26'0 0.0 1012.9 13.3
2016-Dec-03 07:00N 51°28' W 018°26'1 0.6 1013.0 13.3
2016-Dec-03 06:00N 51°27' W 018°26'1 0.7 1012.9 13.3
2016-Dec-03 05:00N 51°26' W 018°25'1 0.6 1013.2 13.3
2016-Dec-03 04:00N 51°26' W 018°25'1 0.7 1013.7 13.3
2016-Dec-03 03:00N 51°25' W 018°25'0 0.0 1013.9 13.3
2016-Dec-03 02:00N 51°25' W 018°25'0 0.4 1014.2 13.2
2016-Dec-03 01:00N 51°25' W 018°24'0 0.0 1014.8 13.2
2016-Dec-03 00:00N 51°25' W 018°24'1 0.6 1014.9 13.2
2016-Dec-02 23:00N 51°25' W 018°24'0 0.0 1015.0 13.2
2016-Dec-02 22:00N 51°25' W 018°24'1 0.6 1015.3 13.2
2016-Dec-02 21:00N 51°24' W 018°24'0 0.0 1015.4 13.2
2016-Dec-02 20:00N 51°24' W 018°24'1 0.6 1015.4 13.2
2016-Dec-02 19:00N 51°23' W 018°24'1 0.6 1015.6 13.2
2016-Dec-02 18:00N 51°23' W 018°24'1 0.7 1015.5 13.2
2016-Dec-02 17:00N 51°22' W 018°23'1 0.6 1015.2 13.2
2016-Dec-02 16:00N 51°22' W 018°23'0 0.0 1015.2 13.2
2016-Dec-02 15:00N 51°22' W 018°23'1 0.7 1015.5 13.2
2016-Dec-02 14:00N 51°21' W 018°23'0 0.0 1016.0 13.2
2016-Dec-02 13:00N 51°21' W 018°23'1 0.7 1016.5 13.2
2016-Dec-02 12:00N 51°20' W 018°22'0 0.0 1017.1 13.2
2016-Dec-02 11:00N 51°20' W 018°22'0 0.0 1017.4 13.2
2016-Dec-02 10:00N 51°20' W 018°22'1 0.7 1017.3 13.1
2016-Dec-02 09:00N 51°20' W 018°22'1 0.6 1017.2 13.1
2016-Dec-02 08:00N 51°19' W 018°22'1 0.6 1017.1 13.1
2016-Dec-02 07:00N 51°19' W 018°22'0 0.4 1016.9 13.1
2016-Dec-02 06:00N 51°19' W 018°21'1 0.6 1017.1 13.1
2016-Dec-02 05:00N 51°18' W 018°21'1 0.6 1017.5 13.1
2016-Dec-02 04:00N 51°17' W 018°21'1 0.6 1017.7 13.1
2016-Dec-02 03:00N 51°17' W 018°21'1 0.6 1018.1 13.1
2016-Dec-02 02:00N 51°16' W 018°21'0 0.0 1018.5 13.1
2016-Dec-02 01:00N 51°16' W 018°21'1 0.7 1019.1 13.1
2016-Dec-02 00:00N 51°16' W 018°20'1 0.6 1019.5 13.1
2016-Dec-01 23:00N 51°15' W 018°20'1 0.6 1019.6 13.1
2016-Dec-01 22:00N 51°14' W 018°20'0 0.0 1020.0 13.2
2016-Dec-01 21:00N 51°14' W 018°20'1 0.7 1020.3 13.2
2016-Dec-01 20:00N 51°14' W 018°20'1 0.6 1020.5 13.2
2016-Dec-01 19:00N 51°13' W 018°20'1 0.7 1020.8 13.2
2016-Dec-01 18:00N 51°13' W 018°19'1 0.6 1021.2 13.2
2016-Dec-01 17:00N 51°12' W 018°19'1 0.7 1021.2 13.3
2016-Dec-01 16:00N 51°11' W 018°19'0 0.0 1021.4 13.3
2016-Dec-01 15:00N 51°11' W 018°19'1 0.6 1022.1 13.3
2016-Dec-01 14:00N 51°11' W 018°19'0 0.0 1022.6 13.3
2016-Dec-01 13:00N 51°11' W 018°19'0 0.4 1023.5 13.3
2016-Dec-01 12:00N 51°11' W 018°19'0 0.0 1024.0 13.3
2016-Dec-01 11:00N 51°11' W 018°19'1 0.6 1024.1 13.3
2016-Dec-01 10:00N 51°10' W 018°19'1 0.4 1023.9 13.3
2016-Dec-01 08:00N 51°10' W 018°20'1 0.6 1024.2 13.3
2016-Dec-01 07:00N 51°09' W 018°20'0 0.4 1024.2 13.3
2016-Dec-01 06:00N 51°09' W 018°19'1 0.6 1024.7 13.4
2016-Dec-01 05:00N 51°08' W 018°19'1 0.6 1025.0 13.4
2016-Dec-01 04:00N 51°08' W 018°19'1 0.6 1025.2 13.4
2016-Dec-01 03:00N 51°07' W 018°19'1 0.4 1025.5 13.4
2016-Dec-01 01:00N 51°07' W 018°19'0 0.0 1026.8 13.4
2016-Dec-01 00:00N 51°07' W 018°19'1 0.6 1027.4 13.4
2016-Nov-30 23:00N 51°06' W 018°19'0 0.0 1027.7 13.4
2016-Nov-30 22:00N 51°06' W 018°19'0 0.4 1028.3 13.4
2016-Nov-30 21:00N 51°06' W 018°18'1 0.7 1028.7 13.4
2016-Nov-30 20:00N 51°05' W 018°17'0 0.0 1029.2 13.4
2016-Nov-30 19:00N 51°05' W 018°17'1 0.6 1029.1 13.4
2016-Nov-30 18:00N 51°05' W 018°17'0 0.0 1029.2 13.4
2016-Nov-30 17:00N 51°05' W 018°17'1 0.7 1029.4 13.4
2016-Nov-30 16:00N 51°04' W 018°17'1 0.6 1029.6 13.4
2016-Nov-30 15:00N 51°04' W 018°17'0 0.0 1029.8 13.5
2016-Nov-30 14:00N 51°04' W 018°17'1 0.7 1030.8 13.5
2016-Nov-30 13:00N 51°03' W 018°16'1 0.6 1031.6 13.5
2016-Nov-30 12:00N 51°02' W 018°16'0 0.4 1032.5 13.5
2016-Nov-30 11:00N 51°02' W 018°16'1 0.7 1032.9 13.5
2016-Nov-30 10:00N 51°02' W 018°15'0 0.0 1032.8 13.5
2016-Nov-30 09:00N 51°02' W 018°15'1 0.7 1033.0 13.5
2016-Nov-30 08:00N 51°01' W 018°14'0 0.0 1032.7 13.5
2016-Nov-30 07:00N 51°01' W 018°14'1 0.7 1032.7 13.5
2016-Nov-30 06:00N 51°01' W 018°14'0 0.0 1032.7 13.5
2016-Nov-30 05:00N 51°01' W 018°14'1 0.6 1032.6 13.5
2016-Nov-30 04:00N 51°00' W 018°14'1 0.6 1032.7 13.5
2016-Nov-30 03:00N 50°59' W 018°14'1 0.6 1032.5 13.5
2016-Nov-30 02:00N 50°59' W 018°14'1 0.7 1033.3 13.5
2016-Nov-30 01:00N 50°58' W 018°13'0 0.0 1033.8 13.6
2016-Nov-30 00:00N 50°58' W 018°13'1 0.6 1034.0 13.6
2016-Nov-29 23:00N 50°58' W 018°13'1 0.6 1034.0 13.6
2016-Nov-29 22:00N 50°57' W 018°13'0 0.4 1034.2 13.6
2016-Nov-29 21:00N 50°57' W 018°13'1 0.6 1034.1 13.6
2016-Nov-29 20:00N 50°56' W 018°13'0 0.4 1033.9 13.6
2016-Nov-29 19:00N 50°56' W 018°12'1 0.6 1033.7 13.6
2016-Nov-29 18:00N 50°56' W 018°12'0 0.4 1033.4 13.6
2016-Nov-29 17:00N 50°56' W 018°11'1 0.6 1033.2 13.6
2016-Nov-29 16:00N 50°55' W 018°11'1 0.6 1033.0 13.6
2016-Nov-29 15:00N 50°55' W 018°11'0 0.4 1032.7 13.6
2016-Nov-29 14:00N 50°55' W 018°11'1 0.6 1032.4 13.6
2016-Nov-29 13:00N 50°54' W 018°11'0 0.4 1033.0 13.6
2016-Nov-29 12:00N 50°54' W 018°10'1 0.6 1033.0 13.6
2016-Nov-29 11:00N 50°53' W 018°10'0 0.4 1032.8 13.6
2016-Nov-29 10:00N 50°53' W 018°10'1 0.6 1032.4 13.6
2016-Nov-29 09:00N 50°53' W 018°10'0 0.0 1031.7 13.6
2016-Nov-29 08:00N 50°53' W 018°10'1 0.7 1030.7 13.6
2016-Nov-29 07:00N 50°52' W 018°09'0 0.0 1030.2 13.6
2016-Nov-29 06:00N 50°52' W 018°09'1 0.7 1029.5 13.6
2016-Nov-29 05:00N 50°52' W 018°08'1 0.6 1028.8 13.6
2016-Nov-29 04:00N 50°51' W 018°08'1 0.6 1028.4 13.6
2016-Nov-29 03:00N 50°50' W 018°08'1 0.6 1027.9 13.6
2016-Nov-29 02:00N 50°50' W 018°08'1 0.6 1027.3 13.7
2016-Nov-29 01:00N 50°49' W 018°08'0 0.0 1027.0 13.7
2016-Nov-29 00:00N 50°49' W 018°08'1 0.6 1026.6 13.7
2016-Nov-28 23:00N 50°49' W 018°08'0 0.0 1026.2 13.7
2016-Nov-28 22:00N 50°49' W 018°08'1 0.6 1025.7 13.7
2016-Nov-28 21:00N 50°48' W 018°08'1 0.7 1025.0 13.7
2016-Nov-28 20:00N 50°47' W 018°08'0 0.0 1024.2 13.7
2016-Nov-28 19:00N 50°47' W 018°08'1 0.7 1023.5 13.7
2016-Nov-28 18:00N 50°47' W 018°07'0 0.0 1022.9 13.7
2016-Nov-28 17:00N 50°47' W 018°07'1 0.6 1021.9 13.7
2016-Nov-28 16:00N 50°46' W 018°07'1 0.6 1020.8 13.7
2016-Nov-28 15:00N 50°46' W 018°07'0 0.0 1020.4 13.7
2016-Nov-28 14:00N 50°46' W 018°07'1 0.6 1020.7 13.7
2016-Nov-28 13:00N 50°45' W 018°07'1 0.6 1020.9 13.7
2016-Nov-28 12:00N 50°44' W 018°07'1 0.6 1020.8 13.7
2016-Nov-28 11:00N 50°44' W 018°07'1 0.7 1020.2 13.7
2016-Nov-28 10:00N 50°43' W 018°07'1 0.7 1020.1 13.7
2016-Nov-28 09:00N 50°43' W 018°06'1 0.6 1019.7 13.7
2016-Nov-28 08:00N 50°42' W 018°06'0 0.4 1019.2 13.7
2016-Nov-28 07:00N 50°42' W 018°05'1 0.7 1018.6 13.7
2016-Nov-28 06:00N 50°41' W 018°05'1 0.6 1018.4 13.7
2016-Nov-28 05:00N 50°41' W 018°05'1 0.6 1018.4 13.7
2016-Nov-28 04:00N 50°40' W 018°05'0 0.0 1018.5 13.7
2016-Nov-28 03:00N 50°40' W 018°05'1 0.6 1018.6 13.7
2016-Nov-28 02:00N 50°40' W 018°05'1 0.6 1018.8 13.6
2016-Nov-28 01:00N 50°39' W 018°05'1 0.6 1019.2 13.6
2016-Nov-28 00:00N 50°38' W 018°05'1 0.6 1019.4 13.7
2016-Nov-27 23:00N 50°38' W 018°05'1 0.6 1019.7 13.7
2016-Nov-27 21:00N 50°37' W 018°05'1 0.6 1019.8 13.7
2016-Nov-27 20:00N 50°36' W 018°05'1 0.7 1019.8 13.7
2016-Nov-27 19:00N 50°35' W 018°04'1 0.6 1019.7 13.7
2016-Nov-27 18:00N 50°35' W 018°04'0 0.4 1019.8 13.7
2016-Nov-27 17:00N 50°35' W 018°04'1 0.6 1019.6 13.7
2016-Nov-27 16:00N 50°34' W 018°04'1 0.7 1019.7 13.7
2016-Nov-27 15:00N 50°34' W 018°03'1 0.6 1019.8 13.7
2016-Nov-27 14:00N 50°33' W 018°03'1 0.6 1020.3 13.7
2016-Nov-27 13:00N 50°32' W 018°03'0 0.4 1020.6 13.7
2016-Nov-27 12:00N 50°32' W 018°04'1 0.6 1021.1 13.7
2016-Nov-27 11:00N 50°32' W 018°04'1 0.6 1021.4 13.7
2016-Nov-27 10:00N 50°31' W 018°04'1 0.6 1021.4 13.7
2016-Nov-27 09:00N 50°31' W 018°04'1 0.6 1021.1 13.6
2016-Nov-27 08:00N 50°30' W 018°04'0 0.4 1020.8 13.6
2016-Nov-27 07:00N 50°30' W 018°03'1 0.6 1020.9 13.6
2016-Nov-27 06:00N 50°29' W 018°03'1 0.6 1020.8 13.6
2016-Nov-27 05:00N 50°29' W 018°03'1 0.6 1020.8 13.6
2016-Nov-27 04:00N 50°28' W 018°03'1 0.6 1020.7 13.6
2016-Nov-27 03:00N 50°28' W 018°03'1 0.6 1020.8 13.6
2016-Nov-27 02:00N 50°27' W 018°03'1 0.7 1020.9 13.7
2016-Nov-27 01:00N 50°26' W 018°02'1 0.6 1021.2 13.7
2016-Nov-27 00:00N 50°26' W 018°02'1 0.6 1021.2 13.7
2016-Nov-26 23:00N 50°25' W 018°02'0 0.0 1021.1 13.7
2016-Nov-26 22:00N 50°25' W 018°02'0 0.0 1021.1 13.7
2016-Nov-26 21:00N 50°25' W 018°02'1 0.6 1021.0 13.7
2016-Nov-26 20:00N 50°25' W 018°02'0 0.0 1020.7 13.7
2016-Nov-26 19:00N 50°25' W 018°02'1 0.7 1020.7 13.8
2016-Nov-26 18:00N 50°24' W 018°03'0 0.0 1020.4 13.8
2016-Nov-26 17:00N 50°24' W 018°03'1 0.7 1020.1 13.8
2016-Nov-26 16:00N 50°23' W 018°04'0 0.0 1020.0 13.7
2016-Nov-26 15:00N 50°23' W 018°04'1 0.6 1019.8 13.8
2016-Nov-26 14:00N 50°23' W 018°04'1 0.6 1020.2 13.8
2016-Nov-26 13:00N 50°22' W 018°04'0 0.0 1020.3 13.8
2016-Nov-26 12:00N 50°22' W 018°04'1 0.6 1020.6 13.7
2016-Nov-26 11:00N 50°22' W 018°04'1 0.7 1020.8 13.8
2016-Nov-26 10:00N 50°21' W 018°03'1 0.6 1021.1 13.7
2016-Nov-26 09:00N 50°20' W 018°03'0 0.4 1020.9 13.7
2016-Nov-26 08:00N 50°20' W 018°02'0 0.4 1020.8 13.7
2016-Nov-26 07:00N 50°20' W 018°02'0 0.0 1020.9 13.7
2016-Nov-26 06:00N 50°20' W 018°02'0 0.0 1020.9 13.7
2016-Nov-26 05:00N 50°20' W 018°02'1 0.6 1021.3 13.7
2016-Nov-26 04:00N 50°20' W 018°02'1 0.7 1021.5 13.7
2016-Nov-26 03:00N 50°19' W 018°02'0 0.0 1021.6 13.7
2016-Nov-26 02:00N 50°19' W 018°02'1 0.7 1022.1 13.7
2016-Nov-26 01:00N 50°19' W 018°03'1 0.7 1022.6 13.8
2016-Nov-26 00:00N 50°18' W 018°04'1 0.6 1022.9 13.8
2016-Nov-25 23:00N 50°17' W 018°04'1 0.6 1023.3 13.8
2016-Nov-25 22:00N 50°17' W 018°04'1 0.6 1023.6 13.8
2016-Nov-25 21:00N 50°16' W 018°04'0 0.0 1024.1 13.8
2016-Nov-25 20:00N 50°16' W 018°04'1 0.6 1024.4 13.8
2016-Nov-25 19:00N 50°16' W 018°04'0 0.0 1024.3 13.8
2016-Nov-25 18:00N 50°16' W 018°04'1 0.7 1024.1 13.8
2016-Nov-25 17:00N 50°15' W 018°03'0 0.0 1024.2 13.8
2016-Nov-25 16:00N 50°15' W 018°03'0 0.4 1024.2 13.8
2016-Nov-25 15:00N 50°15' W 018°04'1 0.7 1024.7 13.8
2016-Nov-25 14:00N 50°14' W 018°04'0 0.4 1025.1 13.8
2016-Nov-25 13:00N 50°14' W 018°05'1 0.7 1025.9 13.8
2016-Nov-25 12:00N 50°14' W 018°05'1 0.8 1026.7 13.8
2016-Nov-25 11:00N 50°14' W 018°07'1 0.7 1026.9 13.8
2016-Nov-25 10:00N 50°13' W 018°07'0 0.4 1026.8 13.8
2016-Nov-25 09:00N 50°13' W 018°08'1 0.7 1026.7 13.8
2016-Nov-25 08:00N 50°13' W 018°08'1 0.7 1026.4 13.8
2016-Nov-25 07:00N 50°12' W 018°09'0 0.0 1026.4 13.8
2016-Nov-25 06:00N 50°12' W 018°09'1 0.7 1026.7 13.8
2016-Nov-25 05:00N 50°11' W 018°08'0 0.4 1026.5 13.8
2016-Nov-25 04:00N 50°11' W 018°08'1 0.6 1026.6 13.7
2016-Nov-25 03:00N 50°11' W 018°08'0 0.4 1026.7 13.7
2016-Nov-25 02:00N 50°11' W 018°07'0 0.0 1027.2 13.7
2016-Nov-25 01:00N 50°11' W 018°07'0 0.0 1027.4 13.7
2016-Nov-25 00:00N 50°11' W 018°07'0 0.0 1027.5 13.6
2016-Nov-24 23:00N 50°11' W 018°07'0 0.4 1027.6 13.6
2016-Nov-24 22:00N 50°11' W 018°08'1 0.7 1027.9 13.6
2016-Nov-24 21:00N 50°10' W 018°08'0 0.4 1028.1 13.6
2016-Nov-24 20:00N 50°10' W 018°09'0 0.4 1028.2 13.6
2016-Nov-24 19:00N 50°10' W 018°10'1 0.6 1027.9 13.6
2016-Nov-24 18:00N 50°10' W 018°10'1 0.7 1027.6 13.6
2016-Nov-24 17:00N 50°09' W 018°10'1 1.3 1027.6 13.6
2016-Nov-24 16:00N 50°08' W 018°10'1 0.6 1027.4 13.7
2016-Nov-24 15:00N 50°07' W 018°10'0 0.0 1027.5 13.6
2016-Nov-24 14:00N 50°07' W 018°10'1 0.7 1027.6 13.7
2016-Nov-24 13:00N 50°07' W 018°09'0 0.0 1027.9 13.8
2016-Nov-24 12:00N 50°07' W 018°09'0 0.4 1028.2 13.8
2016-Nov-24 11:00N 50°07' W 018°08'0 0.4 1027.9 13.8
2016-Nov-24 10:00N 50°07' W 018°09'0 0.0 1027.3 13.7
2016-Nov-24 09:00N 50°07' W 018°09'0 0.4 1026.7 13.7
2016-Nov-24 08:00N 50°07' W 018°10'1 1.0 1026.3 13.7
2016-Nov-24 07:00N 50°06' W 018°11'0 0.4 1026.2 13.7
2016-Nov-24 06:00N 50°06' W 018°11'1 0.7 1025.6 13.7
2016-Nov-24 05:00N 50°05' W 018°12'1 0.7 1025.0 13.7
2016-Nov-24 04:00N 50°05' W 018°13'2 0.9 1024.7 13.7
2016-Nov-24 02:00N 50°03' W 018°12'1 0.6 1024.1 13.7
2016-Nov-24 01:00N 50°02' W 018°12'0 0.0 1024.0 13.8
2016-Nov-24 00:00N 50°02' W 018°12'1 0.6 1023.8 13.8
2016-Nov-23 23:00N 50°02' W 018°12'0 0.0 1023.4 13.8
2016-Nov-23 22:00N 50°02' W 018°12'1 0.7 1023.0 13.8
2016-Nov-23 21:00N 50°01' W 018°13'0 0.0 1022.1 13.8
2016-Nov-23 20:00N 50°01' W 018°13'1 0.7 1021.7 13.8
2016-Nov-23 19:00N 50°01' W 018°13'0 0.4 1021.2 13.8
2016-Nov-23 18:00N 50°01' W 018°14'   1020.4 13.8

Dump ship's entire track history